sensor_id;sensor_type;location;lat;lon;timestamp;P1;durP1;ratioP1;P2;durP2;ratioP2
15114;SDS011;7658;51.456;7.622;2023-10-13T00:01:05;33.40;;;21.73;;
15114;SDS011;7658;51.456;7.622;2023-10-13T00:03:32;26.48;;;20.63;;
15114;SDS011;7658;51.456;7.622;2023-10-13T00:05:58;25.52;;;20.75;;
15114;SDS011;7658;51.456;7.622;2023-10-13T00:08:28;29.45;;;22.23;;
15114;SDS011;7658;51.456;7.622;2023-10-13T00:10:55;25.25;;;21.27;;
15114;SDS011;7658;51.456;7.622;2023-10-13T00:13:25;24.85;;;19.48;;
15114;SDS011;7658;51.456;7.622;2023-10-13T00:15:52;25.10;;;18.73;;
15114;SDS011;7658;51.456;7.622;2023-10-13T00:18:28;23.27;;;18.48;;
15114;SDS011;7658;51.456;7.622;2023-10-13T00:21:00;23.02;;;17.55;;
15114;SDS011;7658;51.456;7.622;2023-10-13T00:23:28;25.38;;;17.13;;
15114;SDS011;7658;51.456;7.622;2023-10-13T00:25:57;23.15;;;17.65;;
15114;SDS011;7658;51.456;7.622;2023-10-13T00:28:27;22.33;;;17.10;;
15114;SDS011;7658;51.456;7.622;2023-10-13T00:31:01;25.67;;;16.13;;
15114;SDS011;7658;51.456;7.622;2023-10-13T00:33:36;21.42;;;16.10;;
15114;SDS011;7658;51.456;7.622;2023-10-13T00:36:03;20.42;;;15.45;;
15114;SDS011;7658;51.456;7.622;2023-10-13T00:38:30;21.80;;;14.98;;
15114;SDS011;7658;51.456;7.622;2023-10-13T00:40:57;17.67;;;14.25;;
15114;SDS011;7658;51.456;7.622;2023-10-13T00:43:43;23.23;;;14.55;;
15114;SDS011;7658;51.456;7.622;2023-10-13T00:46:10;25.17;;;13.70;;
15114;SDS011;7658;51.456;7.622;2023-10-13T00:48:38;17.80;;;14.48;;
15114;SDS011;7658;51.456;7.622;2023-10-13T00:51:19;19.90;;;12.63;;
15114;SDS011;7658;51.456;7.622;2023-10-13T00:54:04;17.30;;;12.30;;
15114;SDS011;7658;51.456;7.622;2023-10-13T00:56:40;15.15;;;11.77;;
15114;SDS011;7658;51.456;7.622;2023-10-13T00:59:25;15.95;;;11.20;;
15114;SDS011;7658;51.456;7.622;2023-10-13T01:01:52;16.65;;;11.82;;
15114;SDS011;7658;51.456;7.622;2023-10-13T01:04:21;14.52;;;11.27;;
15114;SDS011;7658;51.456;7.622;2023-10-13T01:06:53;16.10;;;10.93;;
15114;SDS011;7658;51.456;7.622;2023-10-13T01:09:18;16.55;;;11.73;;
15114;SDS011;7658;51.456;7.622;2023-10-13T01:11:48;17.90;;;11.48;;
15114;SDS011;7658;51.456;7.622;2023-10-13T01:14:17;18.52;;;11.73;;
15114;SDS011;7658;51.456;7.622;2023-10-13T01:16:45;14.40;;;10.73;;
15114;SDS011;7658;51.456;7.622;2023-10-13T01:19:12;15.55;;;10.27;;
15114;SDS011;7658;51.456;7.622;2023-10-13T01:21:39;13.27;;;10.45;;
15114;SDS011;7658;51.456;7.622;2023-10-13T01:24:12;16.83;;;10.32;;
15114;SDS011;7658;51.456;7.622;2023-10-13T01:26:39;19.13;;;12.18;;
15114;SDS011;7658;51.456;7.622;2023-10-13T01:29:06;22.02;;;11.88;;
15114;SDS011;7658;51.456;7.622;2023-10-13T01:31:41;17.20;;;11.98;;
15114;SDS011;7658;51.456;7.622;2023-10-13T01:34:17;15.77;;;11.80;;
15114;SDS011;7658;51.456;7.622;2023-10-13T01:36:50;18.55;;;11.73;;
15114;SDS011;7658;51.456;7.622;2023-10-13T01:39:17;16.02;;;11.93;;
15114;SDS011;7658;51.456;7.622;2023-10-13T01:41:44;15.50;;;11.93;;
15114;SDS011;7658;51.456;7.622;2023-10-13T01:44:10;14.43;;;10.95;;
15114;SDS011;7658;51.456;7.622;2023-10-13T01:46:42;13.60;;;10.95;;
15114;SDS011;7658;51.456;7.622;2023-10-13T01:49:08;15.77;;;12.35;;
15114;SDS011;7658;51.456;7.622;2023-10-13T01:51:33;16.40;;;12.35;;
15114;SDS011;7658;51.456;7.622;2023-10-13T01:53:59;17.88;;;12.68;;
15114;SDS011;7658;51.456;7.622;2023-10-13T01:56:28;14.57;;;11.00;;
15114;SDS011;7658;51.456;7.622;2023-10-13T01:58:56;15.05;;;11.35;;
15114;SDS011;7658;51.456;7.622;2023-10-13T02:01:22;17.73;;;11.82;;
15114;SDS011;7658;51.456;7.622;2023-10-13T02:03:55;17.10;;;11.70;;
15114;SDS011;7658;51.456;7.622;2023-10-13T02:06:32;12.02;;;10.35;;
15114;SDS011;7658;51.456;7.622;2023-10-13T02:08:59;21.25;;;11.55;;
15114;SDS011;7658;51.456;7.622;2023-10-13T02:11:30;17.77;;;12.05;;
15114;SDS011;7658;51.456;7.622;2023-10-13T02:13:56;17.15;;;11.68;;
15114;SDS011;7658;51.456;7.622;2023-10-13T02:16:22;17.67;;;11.48;;
15114;SDS011;7658;51.456;7.622;2023-10-13T02:18:50;14.82;;;10.70;;
15114;SDS011;7658;51.456;7.622;2023-10-13T02:21:19;16.58;;;12.13;;
15114;SDS011;7658;51.456;7.622;2023-10-13T02:23:45;14.77;;;11.32;;
15114;SDS011;7658;51.456;7.622;2023-10-13T02:26:13;16.65;;;11.45;;
15114;SDS011;7658;51.456;7.622;2023-10-13T02:28:55;16.80;;;11.60;;
15114;SDS011;7658;51.456;7.622;2023-10-13T02:31:34;21.20;;;11.80;;
15114;SDS011;7658;51.456;7.622;2023-10-13T02:34:01;18.25;;;11.38;;
15114;SDS011;7658;51.456;7.622;2023-10-13T02:36:33;15.65;;;11.23;;
15114;SDS011;7658;51.456;7.622;2023-10-13T02:39:04;16.23;;;11.02;;
15114;SDS011;7658;51.456;7.622;2023-10-13T02:41:33;14.65;;;11.40;;
15114;SDS011;7658;51.456;7.622;2023-10-13T02:44:02;16.38;;;11.10;;
15114;SDS011;7658;51.456;7.622;2023-10-13T02:46:36;15.73;;;11.10;;
15114;SDS011;7658;51.456;7.622;2023-10-13T02:49:04;15.85;;;10.00;;
15114;SDS011;7658;51.456;7.622;2023-10-13T02:51:36;16.23;;;10.50;;
15114;SDS011;7658;51.456;7.622;2023-10-13T02:54:03;16.75;;;11.15;;
15114;SDS011;7658;51.456;7.622;2023-10-13T02:56:43;18.58;;;10.73;;
15114;SDS011;7658;51.456;7.622;2023-10-13T02:59:30;15.95;;;11.13;;
15114;SDS011;7658;51.456;7.622;2023-10-13T03:02:02;17.95;;;10.35;;
15114;SDS011;7658;51.456;7.622;2023-10-13T03:04:52;20.55;;;10.90;;
15114;SDS011;7658;51.456;7.622;2023-10-13T03:07:28;13.85;;;10.00;;
15114;SDS011;7658;51.456;7.622;2023-10-13T03:09:54;13.10;;;9.93;;
15114;SDS011;7658;51.456;7.622;2023-10-13T03:12:34;15.13;;;10.02;;
15114;SDS011;7658;51.456;7.622;2023-10-13T03:15:03;13.13;;;9.82;;
15114;SDS011;7658;51.456;7.622;2023-10-13T03:17:35;16.92;;;9.75;;
15114;SDS011;7658;51.456;7.622;2023-10-13T03:20:01;15.07;;;10.60;;
15114;SDS011;7658;51.456;7.622;2023-10-13T03:22:30;16.83;;;10.02;;
15114;SDS011;7658;51.456;7.622;2023-10-13T03:24:57;14.85;;;9.43;;
15114;SDS011;7658;51.456;7.622;2023-10-13T03:27:30;14.88;;;10.73;;
15114;SDS011;7658;51.456;7.622;2023-10-13T03:30:07;17.17;;;9.93;;
15114;SDS011;7658;51.456;7.622;2023-10-13T03:32:38;13.75;;;10.18;;
15114;SDS011;7658;51.456;7.622;2023-10-13T03:35:08;15.50;;;8.73;;
15114;SDS011;7658;51.456;7.622;2023-10-13T03:37:50;16.50;;;10.48;;
15114;SDS011;7658;51.456;7.622;2023-10-13T03:40:19;12.55;;;10.27;;
15114;SDS011;7658;51.456;7.622;2023-10-13T03:42:52;12.55;;;10.20;;
15114;SDS011;7658;51.456;7.622;2023-10-13T03:48:15;14.13;;;10.55;;
15114;SDS011;7658;51.456;7.622;2023-10-13T03:50:52;17.50;;;11.93;;
15114;SDS011;7658;51.456;7.622;2023-10-13T03:53:39;16.00;;;11.25;;
15114;SDS011;7658;51.456;7.622;2023-10-13T03:56:25;17.00;;;11.30;;
15114;SDS011;7658;51.456;7.622;2023-10-13T03:58:55;17.30;;;11.35;;
15114;SDS011;7658;51.456;7.622;2023-10-13T04:01:26;17.67;;;11.93;;
15114;SDS011;7658;51.456;7.622;2023-10-13T04:04:10;17.48;;;11.50;;
15114;SDS011;7658;51.456;7.622;2023-10-13T04:06:37;13.73;;;10.73;;
15114;SDS011;7658;51.456;7.622;2023-10-13T04:09:15;19.92;;;12.07;;
15114;SDS011;7658;51.456;7.622;2023-10-13T04:11:54;14.75;;;11.32;;
15114;SDS011;7658;51.456;7.622;2023-10-13T04:14:28;18.42;;;12.07;;
15114;SDS011;7658;51.456;7.622;2023-10-13T04:17:13;17.40;;;11.52;;
15114;SDS011;7658;51.456;7.622;2023-10-13T04:19:42;17.75;;;11.30;;
15114;SDS011;7658;51.456;7.622;2023-10-13T04:22:26;16.38;;;11.70;;
15114;SDS011;7658;51.456;7.622;2023-10-13T04:25:14;15.93;;;11.57;;
15114;SDS011;7658;51.456;7.622;2023-10-13T04:27:58;17.40;;;11.02;;
15114;SDS011;7658;51.456;7.622;2023-10-13T04:30:41;18.42;;;12.75;;
15114;SDS011;7658;51.456;7.622;2023-10-13T04:33:32;15.90;;;10.85;;
15114;SDS011;7658;51.456;7.622;2023-10-13T04:36:21;18.33;;;12.18;;
15114;SDS011;7658;51.456;7.622;2023-10-13T04:38:54;16.02;;;12.05;;
15114;SDS011;7658;51.456;7.622;2023-10-13T04:41:37;19.85;;;12.00;;
15114;SDS011;7658;51.456;7.622;2023-10-13T04:44:07;22.90;;;11.55;;
15114;SDS011;7658;51.456;7.622;2023-10-13T04:46:56;16.70;;;11.65;;
15114;SDS011;7658;51.456;7.622;2023-10-13T04:49:24;17.60;;;11.27;;
15114;SDS011;7658;51.456;7.622;2023-10-13T04:52:08;16.73;;;11.82;;
15114;SDS011;7658;51.456;7.622;2023-10-13T04:54:43;15.40;;;11.35;;
15114;SDS011;7658;51.456;7.622;2023-10-13T04:57:15;16.95;;;11.80;;
15114;SDS011;7658;51.456;7.622;2023-10-13T04:59:44;17.90;;;12.75;;
15114;SDS011;7658;51.456;7.622;2023-10-13T05:02:29;17.88;;;11.88;;
15114;SDS011;7658;51.456;7.622;2023-10-13T05:05:08;15.23;;;10.93;;
15114;SDS011;7658;51.456;7.622;2023-10-13T05:07:41;14.63;;;11.40;;
15114;SDS011;7658;51.456;7.622;2023-10-13T05:10:26;24.60;;;13.32;;
15114;SDS011;7658;51.456;7.622;2023-10-13T05:13:10;19.42;;;11.80;;
15114;SDS011;7658;51.456;7.622;2023-10-13T05:15:54;14.52;;;11.32;;
15114;SDS011;7658;51.456;7.622;2023-10-13T05:18:38;22.77;;;13.35;;
15114;SDS011;7658;51.456;7.622;2023-10-13T05:21:22;16.38;;;10.98;;
15114;SDS011;7658;51.456;7.622;2023-10-13T05:24:06;18.48;;;11.75;;
15114;SDS011;7658;51.456;7.622;2023-10-13T05:26:51;17.88;;;11.48;;
15114;SDS011;7658;51.456;7.622;2023-10-13T05:29:40;20.25;;;12.57;;
15114;SDS011;7658;51.456;7.622;2023-10-13T05:32:25;17.70;;;11.30;;
15114;SDS011;7658;51.456;7.622;2023-10-13T05:35:10;16.17;;;11.00;;
15114;SDS011;7658;51.456;7.622;2023-10-13T05:37:56;16.10;;;11.23;;
15114;SDS011;7658;51.456;7.622;2023-10-13T05:40:50;15.88;;;11.18;;
15114;SDS011;7658;51.456;7.622;2023-10-13T05:43:39;16.65;;;11.20;;
15114;SDS011;7658;51.456;7.622;2023-10-13T05:46:23;13.80;;;10.30;;
15114;SDS011;7658;51.456;7.622;2023-10-13T05:48:52;16.40;;;11.27;;
15114;SDS011;7658;51.456;7.622;2023-10-13T05:51:31;16.67;;;10.50;;
15114;SDS011;7658;51.456;7.622;2023-10-13T05:54:00;14.30;;;11.00;;
15114;SDS011;7658;51.456;7.622;2023-10-13T05:56:45;15.85;;;10.48;;
15114;SDS011;7658;51.456;7.622;2023-10-13T05:59:31;16.90;;;10.55;;
15114;SDS011;7658;51.456;7.622;2023-10-13T06:02:16;17.23;;;11.30;;
15114;SDS011;7658;51.456;7.622;2023-10-13T06:05:02;18.38;;;10.70;;
15114;SDS011;7658;51.456;7.622;2023-10-13T06:07:50;18.95;;;10.07;;
15114;SDS011;7658;51.456;7.622;2023-10-13T06:10:35;15.35;;;10.35;;
15114;SDS011;7658;51.456;7.622;2023-10-13T06:13:20;14.57;;;9.82;;
15114;SDS011;7658;51.456;7.622;2023-10-13T06:16:14;13.55;;;9.70;;
15114;SDS011;7658;51.456;7.622;2023-10-13T06:18:59;13.88;;;9.27;;
15114;SDS011;7658;51.456;7.622;2023-10-13T06:21:43;13.90;;;9.80;;
15114;SDS011;7658;51.456;7.622;2023-10-13T06:24:28;14.95;;;10.10;;
15114;SDS011;7658;51.456;7.622;2023-10-13T06:27:13;17.58;;;9.95;;
15114;SDS011;7658;51.456;7.622;2023-10-13T06:29:58;18.95;;;10.10;;
15114;SDS011;7658;51.456;7.622;2023-10-13T06:32:26;17.02;;;9.57;;
15114;SDS011;7658;51.456;7.622;2023-10-13T06:34:55;15.43;;;9.70;;
15114;SDS011;7658;51.456;7.622;2023-10-13T06:37:44;18.60;;;10.35;;
15114;SDS011;7658;51.456;7.622;2023-10-13T06:40:11;16.50;;;9.95;;
15114;SDS011;7658;51.456;7.622;2023-10-13T06:42:58;12.82;;;9.82;;
15114;SDS011;7658;51.456;7.622;2023-10-13T06:45:46;15.38;;;10.32;;
15114;SDS011;7658;51.456;7.622;2023-10-13T06:48:23;14.15;;;9.98;;
15114;SDS011;7658;51.456;7.622;2023-10-13T06:50:50;12.98;;;9.30;;
15114;SDS011;7658;51.456;7.622;2023-10-13T06:53:17;12.05;;;8.82;;
15114;SDS011;7658;51.456;7.622;2023-10-13T06:55:44;13.27;;;8.20;;
15114;SDS011;7658;51.456;7.622;2023-10-13T06:58:15;16.15;;;8.32;;
15114;SDS011;7658;51.456;7.622;2023-10-13T07:00:43;12.35;;;8.73;;
15114;SDS011;7658;51.456;7.622;2023-10-13T07:03:18;11.63;;;8.10;;
15114;SDS011;7658;51.456;7.622;2023-10-13T07:05:44;14.50;;;8.70;;
15114;SDS011;7658;51.456;7.622;2023-10-13T07:08:14;11.63;;;8.35;;
15114;SDS011;7658;51.456;7.622;2023-10-13T07:10:48;10.82;;;9.25;;
15114;SDS011;7658;51.456;7.622;2023-10-13T07:13:28;16.05;;;9.60;;
15114;SDS011;7658;51.456;7.622;2023-10-13T07:15:54;11.15;;;8.27;;
15114;SDS011;7658;51.456;7.622;2023-10-13T07:18:26;11.82;;;9.73;;
15114;SDS011;7658;51.456;7.622;2023-10-13T07:21:00;15.00;;;9.07;;
15114;SDS011;7658;51.456;7.622;2023-10-13T07:23:34;13.43;;;9.73;;
15114;SDS011;7658;51.456;7.622;2023-10-13T07:26:01;19.20;;;11.98;;
15114;SDS011;7658;51.456;7.622;2023-10-13T07:28:32;14.88;;;10.32;;
15114;SDS011;7658;51.456;7.622;2023-10-13T07:31:17;18.42;;;11.50;;
15114;SDS011;7658;51.456;7.622;2023-10-13T07:33:46;18.17;;;12.05;;
15114;SDS011;7658;51.456;7.622;2023-10-13T07:36:12;19.05;;;13.23;;
15114;SDS011;7658;51.456;7.622;2023-10-13T07:38:44;16.63;;;12.55;;
15114;SDS011;7658;51.456;7.622;2023-10-13T07:41:14;20.27;;;13.50;;
15114;SDS011;7658;51.456;7.622;2023-10-13T07:43:41;23.02;;;13.35;;
15114;SDS011;7658;51.456;7.622;2023-10-13T07:46:10;17.00;;;12.30;;
15114;SDS011;7658;51.456;7.622;2023-10-13T07:48:38;19.90;;;14.35;;
15114;SDS011;7658;51.456;7.622;2023-10-13T07:51:10;18.83;;;11.80;;
15114;SDS011;7658;51.456;7.622;2023-10-13T07:53:41;24.38;;;12.32;;
15114;SDS011;7658;51.456;7.622;2023-10-13T07:56:09;18.05;;;11.05;;
15114;SDS011;7658;51.456;7.622;2023-10-13T07:58:39;22.00;;;12.05;;
15114;SDS011;7658;51.456;7.622;2023-10-13T08:01:25;24.70;;;11.73;;
15114;SDS011;7658;51.456;7.622;2023-10-13T08:03:51;22.95;;;12.00;;
15114;SDS011;7658;51.456;7.622;2023-10-13T08:06:44;20.33;;;11.13;;
15114;SDS011;7658;51.456;7.622;2023-10-13T08:09:10;24.35;;;11.25;;
15114;SDS011;7658;51.456;7.622;2023-10-13T08:11:56;25.88;;;10.95;;
15114;SDS011;7658;51.456;7.622;2023-10-13T08:14:22;21.77;;;11.18;;
15114;SDS011;7658;51.456;7.622;2023-10-13T08:16:48;20.42;;;10.70;;
15114;SDS011;7658;51.456;7.622;2023-10-13T08:19:21;19.27;;;10.32;;
15114;SDS011;7658;51.456;7.622;2023-10-13T08:22:10;19.83;;;10.20;;
15114;SDS011;7658;51.456;7.622;2023-10-13T08:24:42;24.15;;;10.88;;
15114;SDS011;7658;51.456;7.622;2023-10-13T08:27:09;22.88;;;10.63;;
15114;SDS011;7658;51.456;7.622;2023-10-13T08:29:53;19.13;;;9.80;;
15114;SDS011;7658;51.456;7.622;2023-10-13T08:32:19;20.75;;;9.80;;
15114;SDS011;7658;51.456;7.622;2023-10-13T08:35:01;26.42;;;10.60;;
15114;SDS011;7658;51.456;7.622;2023-10-13T08:37:33;18.88;;;9.57;;
15114;SDS011;7658;51.456;7.622;2023-10-13T08:40:19;16.30;;;9.90;;
15114;SDS011;7658;51.456;7.622;2023-10-13T08:43:06;18.67;;;9.15;;
15114;SDS011;7658;51.456;7.622;2023-10-13T08:45:38;18.88;;;9.43;;
15114;SDS011;7658;51.456;7.622;2023-10-13T08:48:06;19.20;;;9.45;;
15114;SDS011;7658;51.456;7.622;2023-10-13T08:50:34;18.00;;;8.60;;
15114;SDS011;7658;51.456;7.622;2023-10-13T08:56:03;19.70;;;8.68;;
15114;SDS011;7658;51.456;7.622;2023-10-13T08:58:31;20.17;;;9.52;;
15114;SDS011;7658;51.456;7.622;2023-10-13T09:01:16;13.05;;;7.90;;
15114;SDS011;7658;51.456;7.622;2023-10-13T09:04:15;23.08;;;8.77;;
15114;SDS011;7658;51.456;7.622;2023-10-13T09:12:23;15.73;;;7.70;;
15114;SDS011;7658;51.456;7.622;2023-10-13T09:14:59;17.67;;;7.38;;
15114;SDS011;7658;51.456;7.622;2023-10-13T09:17:41;15.35;;;7.70;;
15114;SDS011;7658;51.456;7.622;2023-10-13T09:20:31;12.35;;;7.53;;
15114;SDS011;7658;51.456;7.622;2023-10-13T09:23:13;19.65;;;8.10;;
15114;SDS011;7658;51.456;7.622;2023-10-13T09:26:05;18.02;;;7.72;;
15114;SDS011;7658;51.456;7.622;2023-10-13T09:28:34;15.60;;;8.18;;
15114;SDS011;7658;51.456;7.622;2023-10-13T09:31:02;13.07;;;6.90;;
15114;SDS011;7658;51.456;7.622;2023-10-13T09:33:32;14.63;;;7.78;;
15114;SDS011;7658;51.456;7.622;2023-10-13T09:36:01;19.58;;;8.48;;
15114;SDS011;7658;51.456;7.622;2023-10-13T09:38:29;17.88;;;7.20;;
15114;SDS011;7658;51.456;7.622;2023-10-13T09:41:13;17.80;;;6.88;;
15114;SDS011;7658;51.456;7.622;2023-10-13T09:43:51;22.63;;;7.13;;
15114;SDS011;7658;51.456;7.622;2023-10-13T09:46:20;14.00;;;6.75;;
15114;SDS011;7658;51.456;7.622;2023-10-13T09:48:53;17.33;;;6.53;;
15114;SDS011;7658;51.456;7.622;2023-10-13T09:51:40;13.52;;;6.68;;
15114;SDS011;7658;51.456;7.622;2023-10-13T09:54:27;14.88;;;6.68;;
15114;SDS011;7658;51.456;7.622;2023-10-13T09:57:12;15.70;;;6.72;;
15114;SDS011;7658;51.456;7.622;2023-10-13T09:59:55;16.40;;;6.43;;
15114;SDS011;7658;51.456;7.622;2023-10-13T10:02:51;14.20;;;6.45;;
15114;SDS011;7658;51.456;7.622;2023-10-13T10:05:26;15.23;;;6.65;;
15114;SDS011;7658;51.456;7.622;2023-10-13T10:07:57;16.05;;;7.15;;
15114;SDS011;7658;51.456;7.622;2023-10-13T10:10:27;17.60;;;7.28;;
15114;SDS011;7658;51.456;7.622;2023-10-13T10:13:43;15.13;;;6.95;;
15114;SDS011;7658;51.456;7.622;2023-10-13T10:19:14;14.85;;;6.70;;
15114;SDS011;7658;51.456;7.622;2023-10-13T10:21:40;13.70;;;7.15;;
15114;SDS011;7658;51.456;7.622;2023-10-13T10:24:16;20.77;;;6.93;;
15114;SDS011;7658;51.456;7.622;2023-10-13T10:26:55;10.82;;;6.40;;
15114;SDS011;7658;51.456;7.622;2023-10-13T10:29:21;11.65;;;6.28;;
15114;SDS011;7658;51.456;7.622;2023-10-13T10:31:47;11.65;;;6.53;;
15114;SDS011;7658;51.456;7.622;2023-10-13T10:34:17;13.70;;;6.53;;
15114;SDS011;7658;51.456;7.622;2023-10-13T10:36:55;15.63;;;7.20;;
15114;SDS011;7658;51.456;7.622;2023-10-13T10:39:33;14.07;;;6.85;;
15114;SDS011;7658;51.456;7.622;2023-10-13T10:42:10;13.50;;;6.38;;
15114;SDS011;7658;51.456;7.622;2023-10-13T10:44:43;16.17;;;7.55;;
15114;SDS011;7658;51.456;7.622;2023-10-13T10:47:13;16.42;;;7.88;;
15114;SDS011;7658;51.456;7.622;2023-10-13T10:50:03;17.00;;;7.25;;
15114;SDS011;7658;51.456;7.622;2023-10-13T10:52:45;17.80;;;7.68;;
15114;SDS011;7658;51.456;7.622;2023-10-13T10:55:12;12.52;;;7.18;;
15114;SDS011;7658;51.456;7.622;2023-10-13T10:57:45;19.48;;;7.72;;
15114;SDS011;7658;51.456;7.622;2023-10-13T11:00:20;19.80;;;7.15;;
15114;SDS011;7658;51.456;7.622;2023-10-13T11:02:56;17.48;;;7.13;;
15114;SDS011;7658;51.456;7.622;2023-10-13T11:05:22;17.48;;;6.65;;
15114;SDS011;7658;51.456;7.622;2023-10-13T11:07:57;16.60;;;7.55;;
15114;SDS011;7658;51.456;7.622;2023-10-13T11:10:23;13.98;;;6.88;;
15114;SDS011;7658;51.456;7.622;2023-10-13T11:12:59;18.63;;;7.57;;
15114;SDS011;7658;51.456;7.622;2023-10-13T11:15:44;16.50;;;7.68;;
15114;SDS011;7658;51.456;7.622;2023-10-13T11:18:11;15.52;;;6.88;;
15114;SDS011;7658;51.456;7.622;2023-10-13T11:20:49;13.52;;;6.82;;
15114;SDS011;7658;51.456;7.622;2023-10-13T11:23:21;16.30;;;7.70;;
15114;SDS011;7658;51.456;7.622;2023-10-13T11:25:57;18.13;;;7.90;;
15114;SDS011;7658;51.456;7.622;2023-10-13T11:28:24;15.32;;;6.80;;
15114;SDS011;7658;51.456;7.622;2023-10-13T11:30:56;11.68;;;6.60;;
15114;SDS011;7658;51.456;7.622;2023-10-13T11:33:29;20.30;;;6.65;;
15114;SDS011;7658;51.456;7.622;2023-10-13T11:35:56;16.15;;;7.05;;
15114;SDS011;7658;51.456;7.622;2023-10-13T11:41:06;15.38;;;6.70;;
15114;SDS011;7658;51.456;7.622;2023-10-13T11:46:16;22.27;;;7.60;;
15114;SDS011;7658;51.456;7.622;2023-10-13T11:49:10;14.20;;;7.07;;
15114;SDS011;7658;51.456;7.622;2023-10-13T11:51:47;14.68;;;7.60;;
15114;SDS011;7658;51.456;7.622;2023-10-13T11:54:18;21.98;;;7.78;;
15114;SDS011;7658;51.456;7.622;2023-10-13T11:56:50;15.30;;;6.88;;
15114;SDS011;7658;51.456;7.622;2023-10-13T11:59:16;17.73;;;7.78;;
15114;SDS011;7658;51.456;7.622;2023-10-13T12:01:45;11.48;;;6.63;;
15114;SDS011;7658;51.456;7.622;2023-10-13T12:04:30;18.80;;;8.15;;
15114;SDS011;7658;51.456;7.622;2023-10-13T12:06:58;12.77;;;7.43;;
15114;SDS011;7658;51.456;7.622;2023-10-13T12:09:40;18.25;;;7.75;;
15114;SDS011;7658;51.456;7.622;2023-10-13T12:14:47;11.98;;;7.82;;
15114;SDS011;7658;51.456;7.622;2023-10-13T12:17:22;19.63;;;7.70;;
15114;SDS011;7658;51.456;7.622;2023-10-13T12:20:03;12.63;;;7.70;;
15114;SDS011;7658;51.456;7.622;2023-10-13T12:22:33;18.05;;;7.75;;
15114;SDS011;7658;51.456;7.622;2023-10-13T12:25:10;15.73;;;7.00;;
15114;SDS011;7658;51.456;7.622;2023-10-13T12:27:59;23.45;;;8.30;;
15114;SDS011;7658;51.456;7.622;2023-10-13T12:30:53;17.13;;;8.27;;
15114;SDS011;7658;51.456;7.622;2023-10-13T12:33:20;11.25;;;6.72;;
15114;SDS011;7658;51.456;7.622;2023-10-13T12:36:04;16.35;;;6.97;;
15114;SDS011;7658;51.456;7.622;2023-10-13T12:38:37;14.38;;;7.43;;
15114;SDS011;7658;51.456;7.622;2023-10-13T12:41:12;22.48;;;10.25;;
15114;SDS011;7658;51.456;7.622;2023-10-13T12:44:00;14.57;;;7.40;;
15114;SDS011;7658;51.456;7.622;2023-10-13T12:46:44;17.58;;;7.38;;
15114;SDS011;7658;51.456;7.622;2023-10-13T12:49:28;13.50;;;7.50;;
15114;SDS011;7658;51.456;7.622;2023-10-13T12:52:12;13.82;;;6.72;;
15114;SDS011;7658;51.456;7.622;2023-10-13T12:54:44;12.40;;;6.95;;
15114;SDS011;7658;51.456;7.622;2023-10-13T12:57:23;17.52;;;7.43;;
15114;SDS011;7658;51.456;7.622;2023-10-13T12:59:49;50.67;;;20.08;;
15114;SDS011;7658;51.456;7.622;2023-10-13T13:02:24;19.77;;;8.07;;
15114;SDS011;7658;51.456;7.622;2023-10-13T13:04:51;12.35;;;6.63;;
15114;SDS011;7658;51.456;7.622;2023-10-13T13:07:22;13.27;;;7.40;;
15114;SDS011;7658;51.456;7.622;2023-10-13T13:09:54;14.45;;;7.30;;
15114;SDS011;7658;51.456;7.622;2023-10-13T13:12:25;14.07;;;6.95;;
15114;SDS011;7658;51.456;7.622;2023-10-13T13:14:53;19.17;;;6.97;;
15114;SDS011;7658;51.456;7.622;2023-10-13T13:17:20;14.52;;;7.50;;
15114;SDS011;7658;51.456;7.622;2023-10-13T13:19:46;14.05;;;6.75;;
15114;SDS011;7658;51.456;7.622;2023-10-13T13:22:12;18.63;;;7.15;;
15114;SDS011;7658;51.456;7.622;2023-10-13T13:24:42;17.92;;;6.90;;
15114;SDS011;7658;51.456;7.622;2023-10-13T13:27:15;16.65;;;6.95;;
15114;SDS011;7658;51.456;7.622;2023-10-13T13:29:47;15.88;;;7.13;;
15114;SDS011;7658;51.456;7.622;2023-10-13T13:32:13;17.50;;;7.25;;
15114;SDS011;7658;51.456;7.622;2023-10-13T13:34:49;21.67;;;7.95;;
15114;SDS011;7658;51.456;7.622;2023-10-13T13:37:30;13.63;;;6.18;;
15114;SDS011;7658;51.456;7.622;2023-10-13T13:39:56;18.83;;;6.75;;
15114;SDS011;7658;51.456;7.622;2023-10-13T13:42:39;10.80;;;6.28;;
15114;SDS011;7658;51.456;7.622;2023-10-13T13:45:12;17.92;;;6.93;;
15114;SDS011;7658;51.456;7.622;2023-10-13T13:47:50;16.73;;;7.15;;
15114;SDS011;7658;51.456;7.622;2023-10-13T13:50:22;12.95;;;6.65;;
15114;SDS011;7658;51.456;7.622;2023-10-13T13:52:50;22.73;;;6.63;;
15114;SDS011;7658;51.456;7.622;2023-10-13T13:55:18;17.85;;;6.45;;
15114;SDS011;7658;51.456;7.622;2023-10-13T13:57:44;16.27;;;7.00;;
15114;SDS011;7658;51.456;7.622;2023-10-13T14:00:11;18.63;;;6.78;;
15114;SDS011;7658;51.456;7.622;2023-10-13T14:02:42;18.67;;;6.60;;
15114;SDS011;7658;51.456;7.622;2023-10-13T14:05:13;18.63;;;6.97;;
15114;SDS011;7658;51.456;7.622;2023-10-13T14:07:42;16.40;;;6.63;;
15114;SDS011;7658;51.456;7.622;2023-10-13T14:10:14;13.95;;;6.60;;
15114;SDS011;7658;51.456;7.622;2023-10-13T14:12:59;20.00;;;6.95;;
15114;SDS011;7658;51.456;7.622;2023-10-13T14:15:34;16.70;;;6.32;;
15114;SDS011;7658;51.456;7.622;2023-10-13T14:18:06;15.63;;;6.20;;
15114;SDS011;7658;51.456;7.622;2023-10-13T14:20:33;14.18;;;6.90;;
15114;SDS011;7658;51.456;7.622;2023-10-13T14:23:06;16.52;;;6.35;;
15114;SDS011;7658;51.456;7.622;2023-10-13T14:25:34;15.18;;;6.47;;
15114;SDS011;7658;51.456;7.622;2023-10-13T14:28:05;16.42;;;6.70;;
15114;SDS011;7658;51.456;7.622;2023-10-13T14:30:32;15.43;;;7.18;;
15114;SDS011;7658;51.456;7.622;2023-10-13T14:32:59;15.98;;;6.32;;
15114;SDS011;7658;51.456;7.622;2023-10-13T14:35:26;14.50;;;5.93;;
15114;SDS011;7658;51.456;7.622;2023-10-13T14:37:53;17.83;;;6.45;;
15114;SDS011;7658;51.456;7.622;2023-10-13T14:40:19;16.15;;;6.60;;
15114;SDS011;7658;51.456;7.622;2023-10-13T14:42:47;16.13;;;6.75;;
15114;SDS011;7658;51.456;7.622;2023-10-13T14:45:13;17.85;;;6.22;;
15114;SDS011;7658;51.456;7.622;2023-10-13T14:47:41;13.93;;;5.70;;
15114;SDS011;7658;51.456;7.622;2023-10-13T14:50:08;21.88;;;7.28;;
15114;SDS011;7658;51.456;7.622;2023-10-13T14:52:47;18.50;;;6.13;;
15114;SDS011;7658;51.456;7.622;2023-10-13T14:55:13;14.30;;;6.63;;
15114;SDS011;7658;51.456;7.622;2023-10-13T14:57:50;14.02;;;5.80;;
15114;SDS011;7658;51.456;7.622;2023-10-13T15:00:16;18.15;;;6.88;;
15114;SDS011;7658;51.456;7.622;2023-10-13T15:02:53;18.95;;;6.60;;
15114;SDS011;7658;51.456;7.622;2023-10-13T15:05:20;17.73;;;6.93;;
15114;SDS011;7658;51.456;7.622;2023-10-13T15:07:46;15.80;;;6.15;;
15114;SDS011;7658;51.456;7.622;2023-10-13T15:10:12;15.32;;;5.65;;
15114;SDS011;7658;51.456;7.622;2023-10-13T15:12:43;19.13;;;7.00;;
15114;SDS011;7658;51.456;7.622;2023-10-13T15:15:10;16.50;;;5.88;;
15114;SDS011;7658;51.456;7.622;2023-10-13T15:17:42;17.85;;;5.93;;
15114;SDS011;7658;51.456;7.622;2023-10-13T15:20:08;14.60;;;6.07;;
15114;SDS011;7658;51.456;7.622;2023-10-13T15:22:36;14.15;;;6.57;;
15114;SDS011;7658;51.456;7.622;2023-10-13T15:25:04;16.23;;;6.43;;
15114;SDS011;7658;51.456;7.622;2023-10-13T15:27:35;16.30;;;6.70;;
15114;SDS011;7658;51.456;7.622;2023-10-13T15:30:07;17.65;;;6.63;;
15114;SDS011;7658;51.456;7.622;2023-10-13T15:32:45;12.88;;;5.93;;
15114;SDS011;7658;51.456;7.622;2023-10-13T15:35:13;17.50;;;6.18;;
15114;SDS011;7658;51.456;7.622;2023-10-13T15:37:40;18.13;;;6.30;;
15114;SDS011;7658;51.456;7.622;2023-10-13T15:40:07;16.08;;;6.55;;
15114;SDS011;7658;51.456;7.622;2023-10-13T15:42:44;14.60;;;6.03;;
15114;SDS011;7658;51.456;7.622;2023-10-13T15:45:12;18.83;;;6.90;;